Time;durP1;ratioP1;P1;durP2;ratioP2;P2;SDS_P1;SDS_P2;PMS_P1;PMS_P2;Temp;Humidity;BMP_temperature;BMP_pressure;BME280_temperature;BME280_humidity;BME280_pressure;Samples;Min_cycle;Max_cycle;Signal;HPM_P1;HPM_P2
2022/05/17 00:00:08;;;;;;;;;;;24.20;55.20;;;;;;5087228;28;19935;-47
2022/05/17 00:02:35;;;;;;;;;;;24.10;55.70;;;;;;5072262;28;19947;-47
2022/05/17 00:05:02;;;;;;;;;;;24.10;55.10;;;;;;5074317;28;19924;-46
2022/05/17 00:07:29;;;;;;;;;;;24.20;55.20;;;;;;5091769;28;19928;-46
2022/05/17 00:09:56;;;;;;;;;;;24.20;55.20;;;;;;5077644;28;20430;-46
2022/05/17 00:12:23;;;;;;;;;;;24.20;55.20;;;;;;5072958;28;19925;-48
2022/05/17 00:14:50;;;;;;;;;;;24.10;55.20;;;;;;5072692;28;19936;-46
2022/05/17 00:17:17;;;;;;;;;;;24.10;55.10;;;;;;5072919;28;19924;-48
2022/05/17 00:19:44;;;;;;;;;;;24.10;55.10;;;;;;5072557;28;19955;-46
2022/05/17 00:22:11;;;;;;;;;;;24.10;55.10;;;;;;5072878;28;19925;-49
2022/05/17 00:24:38;;;;;;;;;;;24.10;55.10;;;;;;5072216;28;19931;-47
2022/05/17 00:27:05;;;;;;;;;;;24.10;55.10;;;;;;5072418;28;19924;-46
2022/05/17 00:29:32;;;;;;;;;;;24.10;55.10;;;;;;5072340;28;19924;-46
2022/05/17 00:32:00;;;;;;;;;;;24.20;55.20;;;;;;5071766;28;20407;-50
2022/05/17 00:34:27;;;;;;;;;;;24.20;55.20;;;;;;5072208;28;19925;-46
2022/05/17 00:36:54;;;;;;;;;;;24.20;55.20;;;;;;5072597;28;20410;-46
2022/05/17 00:39:21;;;;;;;;;;;24.10;55.10;;;;;;5074668;28;20015;-47
2022/05/17 00:41:48;;;;;;;;;;;24.10;55.10;;;;;;5076524;28;19924;-54
2022/05/17 00:47:09;;;;;;;;;;;24.10;55.10;;;;;;5075175;28;19925;-53
2022/05/17 00:49:50;;;;;;;;;;;24.10;55.10;;;;;;5076051;28;19925;-51
2022/05/17 00:52:20;;;;;;;;;;;24.10;55.10;;;;;;5076075;28;20407;-51
2022/05/17 00:54:49;;;;;;;;;;;24.10;55.10;;;;;;5076058;28;19924;-50
2022/05/17 00:57:28;;;;;;;;;;;24.10;55.10;;;;;;5075717;28;19931;-53
2022/05/17 00:59:57;;;;;;;;;;;24.10;55.10;;;;;;5075851;28;19932;-54
2022/05/17 01:02:24;;;;;;;;;;;24.10;55.10;;;;;;5084173;28;19924;-52
2022/05/17 01:04:52;;;;;;;;;;;24.10;55.10;;;;;;5095408;28;19935;-53
2022/05/17 01:07:20;;;;;;;;;;;24.20;55.20;;;;;;5096102;28;19931;-52
2022/05/17 01:09:47;;;;;;;;;;;24.10;55.10;;;;;;5082744;28;20296;-51
2022/05/17 01:12:14;;;;;;;;;;;24.10;55.10;;;;;;5075937;28;19930;-53
2022/05/17 01:14:57;;;;;;;;;;;24.20;55.20;;;;;;5075356;28;19928;-54
2022/05/17 01:17:25;;;;;;;;;;;24.20;55.20;;;;;;5075014;28;19932;-53
2022/05/17 01:19:52;;;;;;;;;;;24.10;55.10;;;;;;5075796;28;20080;-52
2022/05/17 01:22:19;;;;;;;;;;;24.10;55.10;;;;;;5075486;28;19924;-52
2022/05/17 01:24:47;;;;;;;;;;;24.10;55.10;;;;;;5074923;28;20459;-47
2022/05/17 01:27:23;;;;;;;;;;;24.10;55.10;;;;;;5075633;28;20367;-51
2022/05/17 01:29:51;;;;;;;;;;;24.20;55.20;;;;;;5075193;28;19934;-51
2022/05/17 01:32:18;;;;;;;;;;;24.10;55.10;;;;;;5075334;28;19925;-47
2022/05/17 01:34:45;;;;;;;;;;;24.10;55.10;;;;;;5075651;28;20295;-53
2022/05/17 01:37:12;;;;;;;;;;;24.10;55.10;;;;;;5075479;28;19937;-49
2022/05/17 01:39:40;;;;;;;;;;;24.10;55.10;;;;;;5075442;28;20015;-47
2022/05/17 01:42:08;;;;;;;;;;;24.20;55.20;;;;;;5075647;28;19931;-49
2022/05/17 01:44:35;;;;;;;;;;;24.10;55.10;;;;;;5074883;28;19924;-47
2022/05/17 01:47:02;;;;;;;;;;;24.10;55.10;;;;;;5073700;28;19932;-50
2022/05/17 01:49:30;;;;;;;;;;;24.10;55.10;;;;;;5073325;28;19932;-46
2022/05/17 01:51:57;;;;;;;;;;;24.10;55.10;;;;;;5073873;28;20343;-46
2022/05/17 01:54:24;;;;;;;;;;;24.10;55.10;;;;;;5053818;28;19925;-46
2022/05/17 01:56:51;;;;;;;;;;;24.10;55.10;;;;;;5055281;28;19964;-46
2022/05/17 01:59:18;;;;;;;;;;;24.20;55.20;;;;;;5084508;28;20283;-48
2022/05/17 02:01:45;;;;;;;;;;;24.10;55.10;;;;;;5094619;28;19928;-46
2022/05/17 02:04:12;;;;;;;;;;;24.10;55.10;;;;;;5095265;28;19970;-46
2022/05/17 02:06:39;;;;;;;;;;;24.10;55.10;;;;;;5095104;28;20265;-47
2022/05/17 02:09:06;;;;;;;;;;;24.10;55.10;;;;;;5087289;28;19931;-47
2022/05/17 02:11:33;;;;;;;;;;;24.10;55.20;;;;;;5074665;28;19924;-47
2022/05/17 02:14:01;;;;;;;;;;;24.10;55.10;;;;;;5074403;28;19929;-51
2022/05/17 02:16:28;;;;;;;;;;;24.10;55.20;;;;;;5074888;28;19957;-49
2022/05/17 02:18:55;;;;;;;;;;;24.10;55.20;;;;;;5074433;28;19931;-47
2022/05/17 02:21:22;;;;;;;;;;;24.10;55.10;;;;;;5074201;28;19924;-47
2022/05/17 02:23:49;;;;;;;;;;;24.10;55.10;;;;;;5073527;28;19974;-48
2022/05/17 02:26:16;;;;;;;;;;;24.10;55.20;;;;;;5074187;28;19931;-46
2022/05/17 02:28:44;;;;;;;;;;;24.10;55.10;;;;;;5074045;28;19925;-45
2022/05/17 02:31:15;;;;;;;;;;;24.10;55.10;;;;;;5074615;28;19924;-46
2022/05/17 02:33:43;;;;;;;;;;;24.10;55.10;;;;;;5074050;28;19925;-46
2022/05/17 02:36:10;;;;;;;;;;;24.10;55.20;;;;;;5073785;28;19925;-46
2022/05/17 02:38:37;;;;;;;;;;;24.10;55.20;;;;;;5074084;28;20288;-50
2022/05/17 02:41:03;;;;;;;;;;;24.10;55.10;;;;;;5074190;28;19932;-46
2022/05/17 02:43:31;;;;;;;;;;;24.10;55.10;;;;;;5073672;28;20368;-48
2022/05/17 02:46:04;;;;;;;;;;;24.10;55.20;;;;;;5073833;28;19925;-47
2022/05/17 02:48:31;;;;;;;;;;;24.10;55.10;;;;;;5073809;28;19933;-46
2022/05/17 02:51:06;;;;;;;;;;;24.10;55.10;;;;;;5073806;28;19948;-48
2022/05/17 02:53:33;;;;;;;;;;;24.10;55.10;;;;;;5073824;28;20019;-50
2022/05/17 02:56:00;;;;;;;;;;;24.10;55.10;;;;;;5093061;28;19931;-50
2022/05/17 02:58:27;;;;;;;;;;;24.10;55.10;;;;;;5093654;28;19924;-47
2022/05/17 03:00:54;;;;;;;;;;;24.10;55.10;;;;;;5093136;28;19928;-48
2022/05/17 03:03:21;;;;;;;;;;;24.10;55.10;;;;;;5093881;28;19977;-47
2022/05/17 03:05:54;;;;;;;;;;;24.10;55.10;;;;;;5094011;28;19936;-49
2022/05/17 03:08:21;;;;;;;;;;;24.10;55.20;;;;;;5092380;28;19957;-48
2022/05/17 03:10:48;;;;;;;;;;;24.10;55.10;;;;;;5072795;28;19928;-46
2022/05/17 03:13:16;;;;;;;;;;;24.10;55.10;;;;;;5073456;28;19924;-47
2022/05/17 03:15:42;;;;;;;;;;;24.10;55.10;;;;;;5073408;28;19931;-47
2022/05/17 03:18:09;;;;;;;;;;;24.10;55.10;;;;;;5072973;28;19932;-48
2022/05/17 03:20:37;;;;;;;;;;;24.10;55.10;;;;;;5072682;28;19924;-51
2022/05/17 03:23:04;;;;;;;;;;;24.10;55.10;;;;;;5073154;28;19925;-49
2022/05/17 03:25:32;;;;;;;;;;;24.10;55.10;;;;;;5073309;28;19924;-49
2022/05/17 03:28:01;;;;;;;;;;;24.10;55.10;;;;;;5073256;28;19932;-47
2022/05/17 03:30:28;;;;;;;;;;;24.10;55.10;;;;;;5073017;28;19924;-49
2022/05/17 03:32:55;;;;;;;;;;;24.10;55.20;;;;;;5073298;28;20295;-47
2022/05/17 03:35:23;;;;;;;;;;;24.10;55.10;;;;;;5072758;28;19924;-48
2022/05/17 03:37:50;;;;;;;;;;;24.10;55.20;;;;;;5073102;28;19925;-48
2022/05/17 03:40:17;;;;;;;;;;;24.10;55.10;;;;;;5072349;28;19924;-48
2022/05/17 03:42:44;;;;;;;;;;;24.10;55.10;;;;;;5072667;28;19925;-47
2022/05/17 03:45:12;;;;;;;;;;;24.10;55.10;;;;;;5072757;28;19974;-47
2022/05/17 03:47:39;;;;;;;;;;;24.10;55.10;;;;;;5071844;28;19947;-46
2022/05/17 03:50:07;;;;;;;;;;;24.10;55.10;;;;;;5074966;28;19925;-53
2022/05/17 03:52:35;;;;;;;;;;;24.20;55.20;;;;;;5092786;28;19931;-53
2022/05/17 03:55:04;;;;;;;;;;;24.10;55.10;;;;;;5093004;28;20304;-50
2022/05/17 03:57:31;;;;;;;;;;;24.10;55.10;;;;;;5093012;28;19924;-53
2022/05/17 03:59:58;;;;;;;;;;;24.10;55.10;;;;;;5075302;28;19932;-50
2022/05/17 04:02:25;;;;;;;;;;;24.10;55.10;;;;;;5072895;28;19924;-51
2022/05/17 04:04:53;;;;;;;;;;;24.10;55.10;;;;;;5073170;28;20342;-49
2022/05/17 04:07:20;;;;;;;;;;;24.10;55.10;;;;;;5072987;28;19931;-46
2022/05/17 04:09:47;;;;;;;;;;;24.10;55.10;;;;;;5072635;28;19970;-49
2022/05/17 04:12:15;;;;;;;;;;;24.10;55.10;;;;;;5088085;28;19931;-49
2022/05/17 04:14:42;;;;;;;;;;;24.10;55.10;;;;;;5076027;28;19932;-48
2022/05/17 04:17:09;;;;;;;;;;;24.10;55.10;;;;;;5076812;28;20376;-48
2022/05/17 04:19:37;;;;;;;;;;;24.20;55.20;;;;;;5076773;28;19924;-53
2022/05/17 04:22:08;;;;;;;;;;;24.10;55.70;;;;;;5076950;28;19932;-50
2022/05/17 04:24:35;;;;;;;;;;;24.10;55.10;;;;;;5076085;28;19924;-46
2022/05/17 04:27:03;;;;;;;;;;;24.20;55.20;;;;;;5076949;28;19928;-46
2022/05/17 04:29:31;;;;;;;;;;;24.10;55.10;;;;;;5076978;28;19958;-48
2022/05/17 04:31:58;;;;;;;;;;;24.20;55.20;;;;;;5076290;28;19929;-47
2022/05/17 04:34:26;;;;;;;;;;;24.10;55.10;;;;;;5076337;28;19970;-47
2022/05/17 04:36:53;;;;;;;;;;;24.20;55.20;;;;;;5076209;28;19925;-45
2022/05/17 04:39:20;;;;;;;;;;;24.20;55.20;;;;;;5076685;28;19925;-47
2022/05/17 04:41:47;;;;;;;;;;;24.20;55.20;;;;;;5076479;28;19925;-45
2022/05/17 04:44:14;;;;;;;;;;;24.20;55.20;;;;;;5075680;28;19932;-46
2022/05/17 04:46:41;;;;;;;;;;;24.20;55.10;;;;;;5078269;28;19946;-49
2022/05/17 04:49:09;;;;;;;;;;;24.20;55.10;;;;;;5088828;28;19947;-46
2022/05/17 04:51:36;;;;;;;;;;;24.20;55.10;;;;;;5075733;28;19931;-47
2022/05/17 04:54:03;;;;;;;;;;;24.20;55.10;;;;;;5075752;28;19932;-46
2022/05/17 04:56:30;;;;;;;;;;;24.20;55.10;;;;;;5092005;28;20264;-45
2022/05/17 04:58:58;;;;;;;;;;;24.20;55.10;;;;;;5096268;28;20406;-46
2022/05/17 05:01:25;;;;;;;;;;;24.20;55.10;;;;;;5096346;28;19924;-46
2022/05/17 05:03:52;;;;;;;;;;;24.20;55.10;;;;;;5082778;28;19964;-47
2022/05/17 05:06:19;;;;;;;;;;;24.20;55.10;;;;;;5075278;28;19925;-49
2022/05/17 05:08:46;;;;;;;;;;;24.20;55.10;;;;;;5074945;28;19931;-45
2022/05/17 05:11:13;;;;;;;;;;;24.20;55.10;;;;;;5075645;28;19924;-46
2022/05/17 05:13:40;;;;;;;;;;;24.20;55.10;;;;;;5074970;28;19932;-46
2022/05/17 05:16:08;;;;;;;;;;;24.20;55.10;;;;;;5075351;28;19932;-46
2022/05/17 05:18:39;;;;;;;;;;;24.20;55.10;;;;;;5075444;28;20368;-46
2022/05/17 05:21:11;;;;;;;;;;;24.20;55.10;;;;;;5075068;28;19929;-49
2022/05/17 05:23:40;;;;;;;;;;;24.20;55.10;;;;;;5075164;28;19974;-46
2022/05/17 05:26:08;;;;;;;;;;;24.20;55.10;;;;;;5090687;28;19928;-48
2022/05/17 05:28:36;;;;;;;;;;;24.20;55.10;;;;;;5075183;28;20276;-47
2022/05/17 05:31:03;;;;;;;;;;;24.20;55.10;;;;;;5075236;28;19928;-48
2022/05/17 05:33:33;;;;;;;;;;;24.20;55.10;;;;;;5075568;28;20007;-47
2022/05/17 05:36:01;;;;;;;;;;;24.20;55.10;;;;;;5075166;28;19932;-51
2022/05/17 05:38:28;;;;;;;;;;;24.20;55.10;;;;;;5074747;28;19924;-49
2022/05/17 05:40:55;;;;;;;;;;;24.20;55.10;;;;;;5074604;28;19928;-46
2022/05/17 05:43:23;;;;;;;;;;;24.20;55.10;;;;;;5068924;28;19928;-47
2022/05/17 05:45:50;;;;;;;;;;;24.20;55.10;;;;;;5095089;28;19928;-48
2022/05/17 05:48:17;;;;;;;;;;;24.20;55.10;;;;;;5094666;28;19924;-48
2022/05/17 05:50:47;;;;;;;;;;;24.20;55.10;;;;;;5075025;28;19932;-49
2022/05/17 05:53:15;;;;;;;;;;;24.20;55.10;;;;;;5075276;28;20367;-47
2022/05/17 05:55:42;;;;;;;;;;;24.20;55.00;;;;;;5074775;28;20312;-49
2022/05/17 05:58:10;;;;;;;;;;;24.20;55.00;;;;;;5074655;28;19929;-46
2022/05/17 06:00:38;;;;;;;;;;;24.20;55.00;;;;;;5074131;28;19925;-52
2022/05/17 06:03:06;;;;;;;;;;;24.20;55.00;;;;;;5075084;28;19928;-47
2022/05/17 06:05:34;;;;;;;;;;;24.20;55.00;;;;;;5074881;28;19924;-48
2022/05/17 06:08:01;;;;;;;;;;;24.20;55.10;;;;;;5074573;28;19925;-46
2022/05/17 06:10:28;;;;;;;;;;;24.20;55.00;;;;;;5074413;28;19924;-46
2022/05/17 06:12:55;;;;;;;;;;;24.20;55.00;;;;;;5074350;28;19965;-50
2022/05/17 06:15:22;;;;;;;;;;;24.20;55.00;;;;;;5074381;28;19924;-47
2022/05/17 06:17:50;;;;;;;;;;;24.20;54.90;;;;;;5074372;28;19924;-50
2022/05/17 06:20:17;;;;;;;;;;;24.30;55.00;;;;;;5074660;28;19924;-49
2022/05/17 06:22:44;;;;;;;;;;;24.30;55.00;;;;;;5073418;28;19925;-49
2022/05/17 06:25:11;;;;;;;;;;;24.30;55.00;;;;;;5074148;28;20402;-47
2022/05/17 06:27:38;;;;;;;;;;;24.30;55.00;;;;;;5074200;28;19928;-47
2022/05/17 06:30:07;;;;;;;;;;;24.30;55.00;;;;;;5074347;28;19928;-47
2022/05/17 06:32:34;;;;;;;;;;;24.30;55.00;;;;;;5074199;28;19925;-54
2022/05/17 06:35:01;;;;;;;;;;;24.30;55.00;;;;;;5073865;28;19924;-49
2022/05/17 06:37:28;;;;;;;;;;;24.30;55.00;;;;;;5073273;28;20277;-48
2022/05/17 06:39:55;;;;;;;;;;;24.30;54.90;;;;;;5084725;28;19928;-46
2022/05/17 06:42:22;;;;;;;;;;;24.30;54.90;;;;;;5093997;28;19924;-46
2022/05/17 06:44:49;;;;;;;;;;;24.30;55.00;;;;;;5094076;28;20334;-48
2022/05/17 06:47:16;;;;;;;;;;;24.30;54.90;;;;;;5094310;28;19924;-49
2022/05/17 06:49:43;;;;;;;;;;;24.30;54.90;;;;;;5081153;28;19924;-48
2022/05/17 06:52:10;;;;;;;;;;;24.30;54.90;;;;;;5073756;28;19925;-48
2022/05/17 06:54:41;;;;;;;;;;;24.30;54.90;;;;;;5073827;28;19971;-45
2022/05/17 06:57:10;;;;;;;;;;;24.30;55.00;;;;;;5094283;28;19927;-45
2022/05/17 06:59:39;;;;;;;;;;;24.30;55.10;;;;;;5085567;28;19931;-48
2022/05/17 07:02:07;;;;;;;;;;;24.30;55.10;;;;;;5074163;28;19924;-46
2022/05/17 07:04:34;;;;;;;;;;;24.30;55.30;;;;;;5074038;28;20291;-50
2022/05/17 07:07:02;;;;;;;;;;;24.30;55.50;;;;;;5073629;28;19932;-50
2022/05/17 07:09:29;;;;;;;;;;;24.20;55.50;;;;;;5073704;28;19931;-45
2022/05/17 07:14:49;;;;;;;;;;;24.30;57.00;;;;;;5073823;28;19946;-49
2022/05/17 07:17:18;;;;;;;;;;;24.30;57.70;;;;;;5073615;28;20376;-48
2022/05/17 07:19:45;;;;;;;;;;;24.20;58.00;;;;;;5072866;28;19941;-45
2022/05/17 07:22:12;;;;;;;;;;;24.20;58.20;;;;;;5072693;28;19924;-44
2022/05/17 07:24:41;;;;;;;;;;;24.30;59.10;;;;;;5072600;28;19931;-50
2022/05/17 07:27:09;;;;;;;;;;;24.20;59.00;;;;;;5072840;28;19925;-48
2022/05/17 07:29:46;;;;;;;;;;;24.10;59.50;;;;;;5073221;28;20575;-47
2022/05/17 07:32:13;;;;;;;;;;;24.00;60.10;;;;;;5072815;28;19928;-49
2022/05/17 07:34:41;;;;;;;;;;;24.00;60.10;;;;;;5072927;28;19930;-46
2022/05/17 07:37:09;;;;;;;;;;;24.10;60.10;;;;;;5090733;28;19930;-44
2022/05/17 07:39:36;;;;;;;;;;;24.10;60.20;;;;;;5093132;28;20391;-46
2022/05/17 07:42:04;;;;;;;;;;;24.10;60.30;;;;;;5086135;28;19991;-45
2022/05/17 07:44:32;;;;;;;;;;;24.00;60.40;;;;;;5093347;28;20028;-42
2022/05/17 07:46:59;;;;;;;;;;;24.00;60.40;;;;;;5077581;28;19925;-45
2022/05/17 07:49:26;;;;;;;;;;;24.00;60.40;;;;;;5072221;28;20011;-45
2022/05/17 07:51:54;;;;;;;;;;;24.00;60.80;;;;;;5072345;28;19935;-44
2022/05/17 07:54:21;;;;;;;;;;;24.00;60.50;;;;;;5072095;28;20273;-42
2022/05/17 07:56:49;;;;;;;;;;;24.00;60.80;;;;;;5077516;28;20372;-42
2022/05/17 07:59:16;;;;;;;;;;;23.90;60.70;;;;;;5072828;28;19926;-44
2022/05/17 08:01:43;;;;;;;;;;;23.90;60.70;;;;;;5072444;28;19932;-43
2022/05/17 08:04:10;;;;;;;;;;;24.00;60.60;;;;;;5072877;28;20281;-43
2022/05/17 08:06:38;;;;;;;;;;;24.00;60.60;;;;;;5072210;28;19925;-42
2022/05/17 08:09:05;;;;;;;;;;;24.00;61.00;;;;;;5072268;28;19935;-42
2022/05/17 08:11:33;;;;;;;;;;;24.00;60.40;;;;;;5072522;28;20296;-42
2022/05/17 08:14:00;;;;;;;;;;;24.00;60.20;;;;;;5072594;28;19924;-48
2022/05/17 08:16:39;;;;;;;;;;;24.00;60.20;;;;;;5071487;28;19925;-47
2022/05/17 08:19:06;;;;;;;;;;;24.00;60.10;;;;;;5072353;28;19929;-47
2022/05/17 08:21:33;;;;;;;;;;;24.00;60.30;;;;;;5072245;28;19924;-47
2022/05/17 08:24:00;;;;;;;;;;;24.00;60.00;;;;;;5072407;28;19924;-48
2022/05/17 08:29:13;;;;;;;;;;;24.00;60.10;;;;;;5072521;28;19928;-41
2022/05/17 08:31:40;;;;;;;;;;;24.00;59.80;;;;;;5076848;28;19947;-44
2022/05/17 08:34:08;;;;;;;;;;;24.00;59.90;;;;;;5086676;28;19924;-40
2022/05/17 08:36:35;;;;;;;;;;;24.00;60.20;;;;;;5071871;28;19924;-40
2022/05/17 08:39:03;;;;;;;;;;;24.00;60.10;;;;;;5072022;28;19925;-41
2022/05/17 08:41:52;;;;;;;;;;;24.00;60.00;;;;;;5079167;28;20383;-41
2022/05/17 08:44:23;;;;;;;;;;;24.00;60.10;;;;;;5092336;28;19931;-42
2022/05/17 08:47:12;;;;;;;;;;;24.00;60.00;;;;;;5072558;28;20283;-41
2022/05/17 08:50:05;;;;;;;;;;;24.00;59.70;;;;;;5072081;28;19931;-41
2022/05/17 08:52:33;;;;;;;;;;;24.00;59.40;;;;;;5071980;28;20397;-41
2022/05/17 08:55:02;;;;;;;;;;;24.00;59.30;;;;;;5072222;28;19924;-42
2022/05/17 08:57:31;;;;;;;;;;;24.10;59.30;;;;;;5071843;28;19928;-42
2022/05/17 09:00:02;;;;;;;;;;;24.10;59.30;;;;;;5074098;28;19925;-41
2022/05/17 09:02:32;;;;;;;;;;;24.10;59.20;;;;;;5076021;28;19925;-41
2022/05/17 09:05:09;;;;;;;;;;;24.10;59.10;;;;;;5075736;28;20387;-42
2022/05/17 09:07:46;;;;;;;;;;;24.10;59.00;;;;;;5075568;28;19924;-47
2022/05/17 09:10:26;;;;;;;;;;;24.10;59.10;;;;;;5075350;28;20388;-42
2022/05/17 09:12:57;;;;;;;;;;;24.10;59.00;;;;;;5075457;28;19932;-44
2022/05/17 09:15:24;;;;;;;;;;;24.10;58.90;;;;;;5076092;28;19925;-48
2022/05/17 09:17:51;;;;;;;;;;;24.10;59.00;;;;;;5075189;28;19924;-42
2022/05/17 09:20:20;;;;;;;;;;;24.10;59.10;;;;;;5075346;28;20015;-48
2022/05/17 09:22:47;;;;;;;;;;;24.00;59.20;;;;;;5075117;28;20759;-45
2022/05/17 09:25:16;;;;;;;;;;;24.10;59.10;;;;;;5075377;28;19932;-44
2022/05/17 09:27:49;;;;;;;;;;;24.10;59.20;;;;;;5075098;28;19974;-46
2022/05/17 09:30:23;;;;;;;;;;;24.00;59.10;;;;;;5088369;28;20011;-50
2022/05/17 09:33:00;;;;;;;;;;;24.00;59.00;;;;;;5075116;28;19931;-45
2022/05/17 09:35:28;;;;;;;;;;;24.10;59.40;;;;;;5071002;28;19932;-44
2022/05/17 09:38:03;;;;;;;;;;;24.10;59.30;;;;;;5064029;28;19929;-47
2022/05/17 09:40:32;;;;;;;;;;;24.10;59.30;;;;;;5055165;28;19929;-44
2022/05/17 09:43:02;;;;;;;;;;;24.00;59.10;;;;;;5090589;28;20394;-43
2022/05/17 09:45:49;;;;;;;;;;;24.00;59.20;;;;;;5095021;28;20448;-44
2022/05/17 09:52:32;;;;;;;;;;;24.00;59.30;;;;;;5095559;28;20341;-46
2022/05/17 09:54:31;;;;;;;;;;;24.00;59.80;;;;;;5095069;28;19928;-41
2022/05/17 09:57:12;;;;;;;;;;;23.90;60.00;;;;;;5094962;28;20435;-44
2022/05/17 09:59:39;;;;;;;;;;;23.90;60.20;;;;;;5085566;28;19925;-41
2022/05/17 10:02:26;;;;;;;;;;;23.90;60.40;;;;;;5060018;28;19925;-43
2022/05/17 10:04:53;;;;;;;;;;;23.90;60.60;;;;;;5074503;28;20015;-42
2022/05/17 10:07:21;;;;;;;;;;;23.80;61.10;;;;;;5074875;28;20276;-42
2022/05/17 10:09:49;;;;;;;;;;;23.80;60.80;;;;;;5072762;28;19924;-44
2022/05/17 10:12:23;;;;;;;;;;;23.80;61.00;;;;;;5072650;28;19970;-41
2022/05/17 10:14:52;;;;;;;;;;;23.70;61.20;;;;;;5073683;28;19924;-42
2022/05/17 10:17:38;;;;;;;;;;;23.70;61.40;;;;;;5074407;28;19932;-46
2022/05/17 10:20:26;;;;;;;;;;;23.70;61.60;;;;;;5073745;28;19929;-42
2022/05/17 10:22:59;;;;;;;;;;;23.70;61.80;;;;;;5073512;28;19928;-42
2022/05/17 10:25:26;;;;;;;;;;;23.70;62.10;;;;;;5086646;28;19924;-47
2022/05/17 10:27:55;;;;;;;;;;;23.70;62.00;;;;;;5089527;28;20443;-46
2022/05/17 10:30:32;;;;;;;;;;;23.70;61.90;;;;;;5073776;28;19932;-44
2022/05/17 10:33:04;;;;;;;;;;;23.70;61.80;;;;;;5073693;28;19925;-41
2022/05/17 10:35:42;;;;;;;;;;;23.80;61.70;;;;;;5073770;28;19991;-42
2022/05/17 10:38:25;;;;;;;;;;;23.80;61.40;;;;;;5073285;28;19931;-42
2022/05/17 10:40:55;;;;;;;;;;;23.80;61.30;;;;;;5072724;28;20210;-47
2022/05/17 10:43:22;;;;;;;;;;;23.80;61.40;;;;;;5060402;28;20272;-44
2022/05/17 10:46:10;;;;;;;;;;;23.80;61.80;;;;;;5073845;28;19924;-43
2022/05/17 10:48:46;;;;;;;;;;;23.80;62.10;;;;;;5073637;28;20269;-44
2022/05/17 10:51:23;;;;;;;;;;;23.80;61.60;;;;;;5073211;28;19924;-42
2022/05/17 10:53:50;;;;;;;;;;;23.80;61.50;;;;;;5072483;28;20296;-44
2022/05/17 10:56:38;;;;;;;;;;;23.90;61.40;;;;;;5073472;28;19924;-43
2022/05/17 10:59:18;;;;;;;;;;;23.80;61.50;;;;;;5069633;28;20024;-43
2022/05/17 11:01:45;;;;;;;;;;;23.90;62.20;;;;;;5073454;28;19939;-43
2022/05/17 11:04:17;;;;;;;;;;;23.90;61.50;;;;;;5071852;28;20304;-43
2022/05/17 11:06:50;;;;;;;;;;;23.90;61.30;;;;;;5064786;28;19935;-45
2022/05/17 11:09:22;;;;;;;;;;;24.00;61.40;;;;;;5062149;28;19925;-42
2022/05/17 11:11:49;;;;;;;;;;;23.90;61.30;;;;;;5073082;28;19925;-48
2022/05/17 11:14:22;;;;;;;;;;;23.90;61.60;;;;;;5073253;28;19925;-43
2022/05/17 11:16:55;;;;;;;;;;;24.00;61.50;;;;;;5072883;28;19931;-42
2022/05/17 11:19:48;;;;;;;;;;;24.00;61.40;;;;;;5073096;28;19931;-42
2022/05/17 11:22:37;;;;;;;;;;;24.00;61.70;;;;;;5086803;28;20434;-42
2022/05/17 11:25:08;;;;;;;;;;;24.10;61.40;;;;;;5092310;28;20311;-42
2022/05/17 11:27:57;;;;;;;;;;;24.10;61.50;;;;;;5093087;28;19924;-43
2022/05/17 11:30:34;;;;;;;;;;;24.10;61.10;;;;;;5085112;28;19931;-41
2022/05/17 11:33:23;;;;;;;;;;;24.20;61.60;;;;;;5073160;28;19936;-43
2022/05/17 11:35:53;;;;;;;;;;;24.20;61.70;;;;;;5073013;28;19931;-43
2022/05/17 11:38:20;;;;;;;;;;;24.20;61.60;;;;;;5073134;28;19924;-44
2022/05/17 11:40:47;;;;;;;;;;;24.20;61.60;;;;;;5071662;28;20304;-42
2022/05/17 11:46:04;;;;;;;;;;;24.30;61.20;;;;;;5092749;28;20123;-42
2022/05/17 11:48:52;;;;;;;;;;;24.30;61.10;;;;;;5093003;28;19924;-47
2022/05/17 11:51:21;;;;;;;;;;;24.30;61.10;;;;;;5091498;28;20033;-43
2022/05/17 11:53:49;;;;;;;;;;;24.30;61.10;;;;;;5092816;28;19966;-45
2022/05/17 11:56:25;;;;;;;;;;;24.30;61.20;;;;;;5092826;28;19924;-47
2022/05/17 11:58:54;;;;;;;;;;;24.30;61.10;;;;;;5082430;28;19931;-41
2022/05/17 12:01:30;;;;;;;;;;;24.40;61.20;;;;;;5072803;28;19932;-41
2022/05/17 12:04:01;;;;;;;;;;;24.40;60.90;;;;;;5072191;28;19932;-42
2022/05/17 12:06:47;;;;;;;;;;;24.40;60.80;;;;;;5072811;28;20019;-42
2022/05/17 12:09:20;;;;;;;;;;;24.50;60.70;;;;;;5071840;28;20375;-43
2022/05/17 12:11:57;;;;;;;;;;;24.50;60.40;;;;;;5072416;28;19924;-43
2022/05/17 12:14:29;;;;;;;;;;;24.50;60.20;;;;;;5072087;28;19924;-44
2022/05/17 12:16:59;;;;;;;;;;;24.50;60.00;;;;;;5078043;28;19939;-42
2022/05/17 12:19:39;;;;;;;;;;;24.50;59.70;;;;;;5073120;28;20283;-45
2022/05/17 12:22:17;;;;;;;;;;;24.60;59.80;;;;;;5072298;28;19999;-46
2022/05/17 12:25:07;;;;;;;;;;;24.60;59.70;;;;;;5072497;28;19924;-45
2022/05/17 12:27:35;;;;;;;;;;;24.60;59.40;;;;;;5072501;28;20444;-43
2022/05/17 12:32:51;;;;;;;;;;;24.60;59.10;;;;;;5072863;28;20440;-42
2022/05/17 12:35:26;;;;;;;;;;;24.60;59.10;;;;;;5058047;28;19924;-43
2022/05/17 12:37:53;;;;;;;;;;;24.60;58.60;;;;;;5056460;28;19959;-42
2022/05/17 12:43:11;;;;;;;;;;;24.60;58.00;;;;;;5092278;28;19928;-43
2022/05/17 12:45:43;;;;;;;;;;;24.60;57.80;;;;;;5096836;28;20290;-43
2022/05/17 12:48:28;;;;;;;;;;;24.60;58.30;;;;;;5096874;28;19924;-41
2022/05/17 12:51:00;;;;;;;;;;;24.60;58.20;;;;;;5096563;28;19993;-43
2022/05/17 12:53:37;;;;;;;;;;;24.60;57.60;;;;;;5096529;28;19924;-45
2022/05/17 12:56:07;;;;;;;;;;;24.60;57.30;;;;;;5086472;28;19929;-45
2022/05/17 12:58:48;;;;;;;;;;;24.60;57.40;;;;;;5076486;28;19928;-44
2022/05/17 13:01:21;;;;;;;;;;;24.60;57.00;;;;;;5076110;28;20425;-45
2022/05/17 13:03:48;;;;;;;;;;;24.70;57.00;;;;;;5076299;28;20364;-42
2022/05/17 13:06:15;;;;;;;;;;;24.70;57.20;;;;;;5076020;28;19925;-42
2022/05/17 13:08:42;;;;;;;;;;;24.60;57.10;;;;;;5075846;28;19932;-42
2022/05/17 13:11:09;;;;;;;;;;;24.70;56.30;;;;;;5075907;28;19924;-42
2022/05/17 13:13:39;;;;;;;;;;;24.70;56.70;;;;;;5086183;28;19947;-43
2022/05/17 13:16:14;;;;;;;;;;;24.60;56.70;;;;;;5096193;28;19928;-43
2022/05/17 13:18:47;;;;;;;;;;;24.60;56.70;;;;;;5095798;28;19978;-42
2022/05/17 13:21:32;;;;;;;;;;;24.70;56.80;;;;;;5096171;28;19924;-45
2022/05/17 13:24:01;;;;;;;;;;;24.70;56.70;;;;;;5095688;28;19938;-42
2022/05/17 13:26:34;;;;;;;;;;;24.70;57.20;;;;;;5096179;28;19924;-42
2022/05/17 13:29:20;;;;;;;;;;;24.70;57.10;;;;;;5096023;28;20381;-41
2022/05/17 13:32:00;;;;;;;;;;;24.70;56.10;;;;;;5075734;28;19970;-42
2022/05/17 13:34:32;;;;;;;;;;;24.80;55.90;;;;;;5075483;28;19974;-42
2022/05/17 13:37:04;;;;;;;;;;;24.80;55.40;;;;;;5075826;28;19924;-42
2022/05/17 13:39:32;;;;;;;;;;;24.80;55.60;;;;;;5075351;28;19924;-43
2022/05/17 13:41:59;;;;;;;;;;;24.80;55.30;;;;;;5083771;28;19925;-47
2022/05/17 13:44:34;;;;;;;;;;;24.80;55.10;;;;;;5095666;28;19951;-50
2022/05/17 13:47:04;;;;;;;;;;;24.80;54.70;;;;;;5054800;28;19925;-50
2022/05/17 13:49:38;;;;;;;;;;;24.80;54.80;;;;;;5055614;28;19925;-46
2022/05/17 13:52:20;;;;;;;;;;;24.80;55.50;;;;;;5063195;28;19924;-45
2022/05/17 13:54:53;;;;;;;;;;;24.80;55.10;;;;;;5076348;28;20342;-43
2022/05/17 13:57:22;;;;;;;;;;;24.90;55.30;;;;;;5095084;28;19931;-46
2022/05/17 13:59:53;;;;;;;;;;;24.90;54.90;;;;;;5094508;28;19928;-46
2022/05/17 14:02:50;;;;;;;;;;;24.80;55.90;;;;;;5095467;28;19924;-48
2022/05/17 14:05:17;;;;;;;;;;;24.90;55.80;;;;;;5093405;28;20352;-44
2022/05/17 14:11:49;;;;;;;;;;;24.90;55.40;;;;;;5067161;28;20391;-43
2022/05/17 14:13:39;;;;;;;;;;;24.90;56.00;;;;;;5094905;28;20305;-47
2022/05/17 14:16:13;;;;;;;;;;;24.90;56.40;;;;;;5093662;28;19928;-45
2022/05/17 14:18:41;;;;;;;;;;;24.90;56.30;;;;;;5094536;28;19924;-45
2022/05/17 14:21:09;;;;;;;;;;;24.90;56.10;;;;;;5094354;28;19924;-44
2022/05/17 14:23:37;;;;;;;;;;;24.90;56.00;;;;;;5093154;28;20494;-43
2022/05/17 14:26:05;;;;;;;;;;;24.90;56.10;;;;;;5091967;28;20023;-45
2022/05/17 14:28:32;;;;;;;;;;;24.90;55.80;;;;;;5070662;28;19928;-44
2022/05/17 14:30:59;;;;;;;;;;;24.90;56.30;;;;;;5073015;28;20311;-45
2022/05/17 14:33:27;;;;;;;;;;;25.00;56.10;;;;;;5054341;28;19928;-44
2022/05/17 14:35:57;;;;;;;;;;;25.00;56.10;;;;;;5053682;28;20376;-44
2022/05/17 14:38:30;;;;;;;;;;;25.00;55.70;;;;;;5054108;28;20376;-44
2022/05/17 14:40:57;;;;;;;;;;;25.00;55.90;;;;;;5053889;28;19925;-44
2022/05/17 14:43:25;;;;;;;;;;;25.00;55.90;;;;;;5093815;28;19931;-43
2022/05/17 14:45:53;;;;;;;;;;;25.00;55.70;;;;;;5093951;28;19931;-43
2022/05/17 14:48:22;;;;;;;;;;;25.00;55.10;;;;;;5085883;28;19931;-43
2022/05/17 14:50:49;;;;;;;;;;;25.00;54.80;;;;;;5073509;28;19924;-43
2022/05/17 14:53:16;;;;;;;;;;;25.00;55.90;;;;;;5073796;28;19936;-49
2022/05/17 14:55:43;;;;;;;;;;;24.90;55.00;;;;;;5082743;28;19963;-44